CSG - Columbus

Pirep is a free, collaborative database of all public and private airports located within the United States. All pilots are welcome to contribute, edit, and improve any airport they have local knowledge about, no registration required.
Are you familiar with this airport? Help out other pilots by adding your local knowledge.
Uploaded photos will be licensed under a CC BY-SA 4.0 license. Please only upload photos you have the rights to use.
Tags
Public
Undocu­mented
METAR / TAF
Edit Tags
Food
Camping
Lodging
Car Rental
Bicycles
Swimming
Golfing
Fishing
Hot Springs
Museum
Flying Clubs
Airpark
Upcoming Events
No upcoming events. Is anything happening here soon?
*
*
*

Where exactly on/near the airport is this event taking place?

Is there a webpage with more information for this event?

Who should be contacted for more information?

What is this event all about?

Repeat every
Description
Transient Parking
Fuel Location
Landing & Tie-down Fees
Crew Car Availability
Flying Clubs
WiFi Access
Airport Statistics
Location: Columbus, GA
Elevation: 397ft
Sectional: Atlanta
Activation date: Nov 1942
Fuel: 100LL, A (prices)
Runway 06/24: 6,997ft
Runway 13/31: 3,997ft
Access: Open to the public
Current Weather — VFR
  • Weather data is strictly informational and not for flight planning purposes.
  • METAR
    2024-05-30 05:51:00 EDT
    Ceiling Wind Temperature Dewpoint Weather Visbility
    Sky clear 60° @ 3kt 71°F 53°F N/A 10SM
    Raw: KCSG 300951Z AUTO 06003KT 10SM CLR 22/12 A3008 RMK AO2 SLP181 T02170122
  • TAF
    2024-05-30 02:00:00 EDT – 2024-05-30 13:00:00 EDT
    Ceiling Wind Weather Visbility
    25,000ft 320° @ 4kt N/A 6SM
    Clouds: Broken @ 25,000ft
    Raw: KCSG 300540Z 3006/3106 32004KT P6SM BKN250 FM301700 33009KT P6SM FEW050 SCT150 FM310200 34004KT P6SM FEW250
  • TAF
    2024-05-30 13:00:00 EDT – 2024-05-30 22:00:00 EDT
    Ceiling Wind Weather Visbility
    Sky clear 330° @ 9kt N/A 6SM
    Clouds: Few @ 5,000ft, Scattered @ 15,000ft
    Raw: KCSG 300540Z 3006/3106 32004KT P6SM BKN250 FM301700 33009KT P6SM FEW050 SCT150 FM310200 34004KT P6SM FEW250
  • TAF
    2024-05-30 22:00:00 EDT – 2024-05-31 02:00:00 EDT
    Ceiling Wind Weather Visbility
    Sky clear 340° @ 4kt N/A 6SM
    Clouds: Few @ 25,000ft
    Raw: KCSG 300540Z 3006/3106 32004KT P6SM BKN250 FM301700 33009KT P6SM FEW050 SCT150 FM310200 34004KT P6SM FEW250
Click/tap to add an annotation marker to the map
Airport Webcams
No webcams added yet.
Direct links to live image URLs will be displayed inline on this page. URLs to separate webpages will be linked to.
URL:
Direct links to live image URLs will be displayed inline on this page. URLs to separate webpages will be linked to.
URL:
Remarks
  • Index b arff equip avbl.
  • Birds on & invof arpt.
  • For cd if una to ctc on fss freq, ctc atlanta apch at 678-364-6132, when atct clsd ctc atlanta artcc at 770-210-7692.
  • Be alert for rwy 6 at twy d int dep instructions with rwy rmng 5085 ft tora/toda/asda.
  • Be alert for rwy 6 at twy f int dep instructions with rwy rmng 5623 ft tora/toda/asda.
Comments
Leave a comment What was your experience like at this airport?